createdAt,value
2023-03-31T00:01:53.114Z,98961.53
2023-03-31T00:04:24.424Z,98962.03
2023-03-31T00:06:54.647Z,98966.03
2023-03-31T00:09:24.892Z,98955.00
2023-03-31T00:11:52.459Z,98949.38
2023-03-31T00:14:20.916Z,98953.47
2023-03-31T00:16:47.666Z,98958.91
2023-03-31T00:19:21.423Z,98966.69
2023-03-31T00:21:49.160Z,98955.53
2023-03-31T00:24:16.544Z,98955.16
2023-03-31T00:26:43.850Z,98960.69
2023-03-31T00:29:13.017Z,98952.69
2023-03-31T00:31:40.131Z,98948.84
2023-03-31T00:34:07.461Z,98946.28
2023-03-31T00:36:36.978Z,98941.28
2023-03-31T00:39:09.703Z,98949.25
2023-03-31T00:41:39.415Z,98942.13
2023-03-31T00:44:19.138Z,98934.69
2023-03-31T00:46:55.721Z,98937.38
2023-03-31T00:49:24.769Z,98936.88
2023-03-31T00:51:52.566Z,98925.41
2023-03-31T00:54:21.683Z,98929.69
2023-03-31T00:56:49.622Z,98932.66
2023-03-31T00:59:16.887Z,98925.34
2023-03-31T01:01:45.988Z,98935.94
2023-03-31T01:04:14.284Z,98926.63
2023-03-31T01:06:50.435Z,98919.31
2023-03-31T01:09:17.170Z,98917.09
2023-03-31T01:11:46.480Z,98925.84
2023-03-31T01:14:13.360Z,98927.16
2023-03-31T01:16:40.137Z,98928.22
2023-03-31T01:19:12.938Z,98926.59
2023-03-31T01:21:53.924Z,98925.69
2023-03-31T01:24:35.795Z,98922.78
2023-03-31T01:27:46.591Z,98925.34
2023-03-31T01:30:34.975Z,98919.53
2023-03-31T01:33:14.586Z,98922.19
2023-03-31T01:36:13.832Z,98915.00
2023-03-31T01:39:07.338Z,98919.38
2023-03-31T01:42:02.596Z,98912.72
2023-03-31T01:44:44.583Z,98908.88
2023-03-31T01:47:22.924Z,98901.31
2023-03-31T01:50:03.436Z,98897.53
2023-03-31T01:52:56.608Z,98900.75
2023-03-31T01:55:25.509Z,98899.25
2023-03-31T01:58:00.363Z,98894.09
2023-03-31T02:00:34.007Z,98888.16
2023-03-31T02:03:12.916Z,98883.81
2023-03-31T02:05:50.466Z,98879.69
2023-03-31T02:08:23.204Z,98878.84
2023-03-31T02:10:52.194Z,98873.28
2023-03-31T02:13:19.201Z,98879.56
2023-03-31T02:15:48.414Z,98871.81
2023-03-31T02:18:18.711Z,98866.53
2023-03-31T02:20:48.460Z,98871.78
2023-03-31T02:23:18.002Z,98875.78
2023-03-31T02:25:51.561Z,98871.38
2023-03-31T02:28:24.202Z,98861.78
2023-03-31T02:31:15.534Z,98854.03
2023-03-31T02:33:42.360Z,98853.25
2023-03-31T02:36:09.657Z,98851.50
2023-03-31T02:38:42.008Z,98846.91
2023-03-31T02:41:09.213Z,98839.78
2023-03-31T02:43:36.184Z,98830.38
2023-03-31T02:46:03.144Z,98825.19
2023-03-31T02:48:50.756Z,98830.59
2023-03-31T02:51:42.441Z,98821.88
2023-03-31T02:54:23.212Z,98825.25
2023-03-31T02:57:26.349Z,98822.59
2023-03-31T03:00:14.548Z,98823.88
2023-03-31T03:03:21.385Z,98828.28
2023-03-31T03:05:54.972Z,98821.88
2023-03-31T03:09:13.057Z,98810.75
2023-03-31T03:11:51.674Z,98820.22
2023-03-31T03:14:30.722Z,98827.31
2023-03-31T03:17:10.984Z,98827.31
2023-03-31T03:19:37.856Z,98832.22
2023-03-31T03:22:04.717Z,98831.75
2023-03-31T03:24:34.503Z,98831.78
2023-03-31T03:27:01.323Z,98834.38
2023-03-31T03:29:28.555Z,98823.34
2023-03-31T03:31:55.557Z,98823.44
2023-03-31T03:34:22.288Z,98809.16
2023-03-31T03:36:49.041Z,98807.69
2023-03-31T03:39:15.961Z,98800.53
2023-03-31T03:41:42.651Z,98805.28
2023-03-31T03:44:09.364Z,98802.66
2023-03-31T03:46:36.038Z,98797.53
2023-03-31T03:49:02.814Z,98792.94
2023-03-31T03:51:29.544Z,98802.41
2023-03-31T03:53:56.222Z,98798.50
2023-03-31T03:56:23.173Z,98809.44
2023-03-31T03:58:51.022Z,98804.09
2023-03-31T04:01:18.372Z,98818.06
2023-03-31T04:03:45.528Z,98809.50
2023-03-31T04:06:12.186Z,98814.22
2023-03-31T04:08:38.986Z,98802.59
2023-03-31T04:11:14.101Z,98803.25
2023-03-31T04:13:41.971Z,98800.63
2023-03-31T04:16:08.804Z,98796.38
2023-03-31T04:18:37.345Z,98785.75
2023-03-31T04:21:04.336Z,98792.31
2023-03-31T04:23:46.975Z,98789.47
2023-03-31T04:26:14.726Z,98784.81
2023-03-31T04:28:43.030Z,98783.78
2023-03-31T04:31:10.895Z,98780.50
2023-03-31T04:33:40.524Z,98778.47
2023-03-31T04:36:26.115Z,98778.66
2023-03-31T04:38:55.039Z,98772.47
2023-03-31T04:41:27.855Z,98767.50
2023-03-31T04:43:55.815Z,98762.38
2023-03-31T04:46:44.962Z,98750.81
2023-03-31T04:49:11.793Z,98745.84
2023-03-31T04:51:38.454Z,98731.84
2023-03-31T04:54:07.772Z,98735.06
2023-03-31T04:56:34.442Z,98733.31
2023-03-31T04:59:01.252Z,98735.72
2023-03-31T05:01:28.254Z,98745.22
2023-03-31T05:03:55.345Z,98735.50
2023-03-31T05:06:22.000Z,98732.94
2023-03-31T05:08:48.683Z,98739.63
2023-03-31T05:11:15.569Z,98730.38
2023-03-31T05:13:42.420Z,98735.09
2023-03-31T05:16:11.067Z,98734.88
2023-03-31T05:18:38.363Z,98736.50
2023-03-31T05:21:15.578Z,98745.28
2023-03-31T05:23:42.864Z,98745.28
2023-03-31T05:26:09.745Z,98739.59
2023-03-31T05:28:37.180Z,98738.47
2023-03-31T05:31:04.735Z,98728.56
2023-03-31T05:33:31.774Z,98730.53
2023-03-31T05:36:00.408Z,98724.47
2023-03-31T05:38:31.766Z,98725.72
2023-03-31T05:40:58.698Z,98713.78
2023-03-31T05:43:25.718Z,98713.06
2023-03-31T05:45:52.544Z,98708.75
2023-03-31T05:48:19.534Z,98696.28
2023-03-31T05:50:46.319Z,98704.31
2023-03-31T05:53:12.983Z,98692.47
2023-03-31T05:55:40.031Z,98697.13
2023-03-31T05:58:06.988Z,98690.81
2023-03-31T06:00:34.035Z,98676.78
2023-03-31T06:03:00.879Z,98675.41
2023-03-31T06:05:27.844Z,98669.03
2023-03-31T06:07:55.650Z,98675.00
2023-03-31T06:10:22.343Z,98667.53
2023-03-31T06:12:49.073Z,98668.88
2023-03-31T06:15:16.285Z,98662.25
2023-03-31T06:17:43.103Z,98663.25
2023-03-31T06:20:20.432Z,98650.31
2023-03-31T06:22:51.256Z,98657.25
2023-03-31T06:25:18.001Z,98646.44
2023-03-31T06:27:44.715Z,98651.06
2023-03-31T06:30:12.044Z,98655.88
2023-03-31T06:32:38.912Z,98653.16
2023-03-31T06:35:06.109Z,98643.13
2023-03-31T06:37:32.870Z,98639.31
2023-03-31T06:39:59.628Z,98636.47
2023-03-31T06:42:26.334Z,98645.84
2023-03-31T06:44:53.107Z,98638.06
2023-03-31T06:47:19.876Z,98631.84
2023-03-31T06:49:46.617Z,98634.56
2023-03-31T06:52:13.361Z,98625.38
2023-03-31T06:54:40.200Z,98629.41
2023-03-31T06:57:06.911Z,98619.63
2023-03-31T06:59:33.601Z,98627.69
2023-03-31T07:02:00.838Z,98615.53
2023-03-31T07:04:27.728Z,98600.56
2023-03-31T07:06:54.435Z,98610.09
2023-03-31T07:09:23.535Z,98596.69
2023-03-31T07:11:50.822Z,98597.81
2023-03-31T07:14:17.534Z,98597.28
2023-03-31T07:16:44.449Z,98589.53
2023-03-31T07:19:11.440Z,98590.63
2023-03-31T07:21:38.161Z,98587.22
2023-03-31T07:24:07.078Z,98577.75
2023-03-31T07:26:33.876Z,98576.88
2023-03-31T07:29:00.625Z,98568.72
2023-03-31T07:31:27.442Z,98571.47
2023-03-31T07:33:54.222Z,98552.59
2023-03-31T07:36:22.021Z,98550.69
2023-03-31T07:38:49.959Z,98540.34
2023-03-31T07:41:19.343Z,98535.78
2023-03-31T07:43:46.550Z,98535.38
2023-03-31T07:46:25.120Z,98530.06
2023-03-31T07:48:53.352Z,98524.63
2023-03-31T07:51:22.641Z,98525.03
2023-03-31T07:53:49.636Z,98523.22
2023-03-31T07:56:17.091Z,98513.13
2023-03-31T07:58:44.429Z,98523.09
2023-03-31T08:01:17.561Z,98517.78
2023-03-31T08:03:46.449Z,98508.84
2023-03-31T08:06:18.876Z,98503.50
2023-03-31T08:08:45.681Z,98492.16
2023-03-31T08:11:12.370Z,98484.72
2023-03-31T08:13:39.105Z,98483.91
2023-03-31T08:16:06.457Z,98477.00
2023-03-31T08:18:33.446Z,98474.44
2023-03-31T08:21:00.139Z,98475.75
2023-03-31T08:23:27.023Z,98471.16
2023-03-31T08:25:53.736Z,98456.59
2023-03-31T08:28:20.498Z,98458.97
2023-03-31T08:30:47.262Z,98454.47
2023-03-31T08:33:14.304Z,98451.75
2023-03-31T08:35:41.140Z,98444.50
2023-03-31T08:38:07.859Z,98451.50
2023-03-31T08:40:34.572Z,98451.19
2023-03-31T08:43:19.270Z,98441.66
2023-03-31T08:45:47.369Z,98428.59
2023-03-31T08:48:38.953Z,98429.69
2023-03-31T08:51:14.700Z,98422.44
2023-03-31T08:53:44.525Z,98409.31
2023-03-31T08:56:17.900Z,98394.22
2023-03-31T08:58:47.147Z,98392.22
2023-03-31T09:01:31.302Z,98393.53
2023-03-31T09:04:27.332Z,98397.75
2023-03-31T09:07:10.343Z,98389.06
2023-03-31T09:09:38.821Z,98385.13
2023-03-31T09:12:10.798Z,98380.59
2023-03-31T09:15:09.104Z,98373.88
2023-03-31T09:17:45.259Z,98376.19
2023-03-31T09:20:31.896Z,98380.22
2023-03-31T09:23:19.098Z,98374.56
2023-03-31T09:25:46.713Z,98378.72
2023-03-31T09:28:20.466Z,98371.97
2023-03-31T09:30:52.283Z,98365.13
2023-03-31T09:33:28.470Z,98358.41
2023-03-31T09:35:55.317Z,98351.47
2023-03-31T09:38:22.126Z,98337.47
2023-03-31T09:40:49.065Z,98328.03
2023-03-31T09:43:23.031Z,98311.47
2023-03-31T09:46:07.887Z,98310.75
2023-03-31T09:48:36.636Z,98320.28
2023-03-31T09:51:18.489Z,98310.44
2023-03-31T09:54:00.164Z,98302.13
2023-03-31T09:56:54.046Z,98300.34
2023-03-31T09:59:34.789Z,98301.38
2023-03-31T10:02:23.031Z,98303.53
2023-03-31T10:04:50.172Z,98297.78
2023-03-31T10:07:21.801Z,98298.72
2023-03-31T10:09:48.946Z,98300.56
2023-03-31T10:12:26.744Z,98288.03
2023-03-31T10:14:55.141Z,98280.50
2023-03-31T10:17:23.807Z,98269.53
2023-03-31T10:19:54.852Z,98271.66
2023-03-31T10:22:21.632Z,98273.75
2023-03-31T10:24:50.084Z,98274.22
2023-03-31T10:27:28.651Z,98272.69
2023-03-31T10:30:00.106Z,98260.50
2023-03-31T10:32:29.062Z,98258.28
2023-03-31T10:34:57.365Z,98248.84
2023-03-31T10:37:26.518Z,98242.22
2023-03-31T10:40:02.351Z,98236.03
2023-03-31T10:42:29.113Z,98232.84
2023-03-31T10:45:36.548Z,98236.50
2023-03-31T10:48:04.974Z,98233.34
2023-03-31T10:50:36.618Z,98231.22
2023-03-31T10:53:11.356Z,98232.50
2023-03-31T10:55:44.725Z,98236.50
2023-03-31T10:58:33.259Z,98228.81
2023-03-31T11:01:29.938Z,98233.41
2023-03-31T11:04:09.747Z,98235.75
2023-03-31T11:06:49.896Z,98239.28
2023-03-31T11:09:46.475Z,98246.16
2023-03-31T11:12:21.894Z,98237.81
2023-03-31T11:15:16.581Z,98236.97
2023-03-31T11:17:55.854Z,98233.53
2023-03-31T11:20:35.506Z,98230.88
2023-03-31T11:23:24.038Z,98237.28
2023-03-31T11:26:06.621Z,98230.31
2023-03-31T11:28:58.296Z,98236.13
2023-03-31T11:31:37.408Z,98215.81
2023-03-31T11:34:32.498Z,98188.78
2023-03-31T11:37:13.364Z,98176.28
2023-03-31T11:39:54.644Z,98150.16
2023-03-31T11:42:32.123Z,98134.47
2023-03-31T11:45:04.332Z,98124.22
2023-03-31T11:47:35.101Z,98121.97
2023-03-31T11:50:07.515Z,98124.00
2023-03-31T11:52:35.611Z,98122.22
2023-03-31T11:55:15.699Z,98100.47
2023-03-31T11:57:46.973Z,98085.50
2023-03-31T12:00:20.898Z,98087.59
2023-03-31T12:02:54.945Z,98079.59
2023-03-31T12:05:23.041Z,98070.72
2023-03-31T12:07:58.962Z,98067.56
2023-03-31T12:10:36.010Z,98080.50
2023-03-31T12:13:26.444Z,98070.78
2023-03-31T12:16:02.972Z,98048.91
2023-03-31T12:18:33.927Z,98039.84
2023-03-31T12:21:03.500Z,98058.47
2023-03-31T12:23:34.487Z,98054.75
2023-03-31T12:26:36.415Z,98027.53
2023-03-31T12:29:31.620Z,98024.66
2023-03-31T12:32:03.948Z,98045.38
2023-03-31T12:34:31.480Z,98037.50
2023-03-31T12:37:32.269Z,98024.44
2023-03-31T12:40:16.646Z,98026.69
2023-03-31T12:42:59.593Z,98041.69
2023-03-31T12:45:31.478Z,98042.94
2023-03-31T12:47:58.216Z,98036.56
2023-03-31T12:50:54.250Z,98010.53
2023-03-31T12:53:44.886Z,98030.41
2023-03-31T12:56:11.651Z,98030.22
2023-03-31T12:58:41.692Z,98023.16
2023-03-31T13:01:16.349Z,98021.06
2023-03-31T13:04:21.626Z,98012.91
2023-03-31T13:06:59.822Z,98007.13
2023-03-31T13:09:47.070Z,98007.25
2023-03-31T13:12:16.751Z,97996.44
2023-03-31T13:14:45.633Z,97998.31
2023-03-31T13:17:25.172Z,97999.06
2023-03-31T13:19:52.457Z,97989.84
2023-03-31T13:22:36.590Z,97982.94
2023-03-31T13:25:31.447Z,97977.56
2023-03-31T13:28:04.612Z,97964.94
2023-03-31T13:30:37.189Z,97959.19
2023-03-31T13:33:22.049Z,97947.38
2023-03-31T13:35:57.697Z,97937.38
2023-03-31T13:38:34.754Z,97927.41
2023-03-31T13:41:13.643Z,97937.34
2023-03-31T13:43:43.911Z,97928.34
2023-03-31T13:46:32.329Z,97917.91
2023-03-31T13:49:20.716Z,97900.94
2023-03-31T13:51:58.419Z,97906.16
2023-03-31T13:54:49.341Z,97897.41
2023-03-31T13:57:36.032Z,97891.38
2023-03-31T14:00:21.800Z,97881.31
2023-03-31T14:03:12.894Z,97872.78
2023-03-31T14:05:43.557Z,97872.41
2023-03-31T14:08:12.865Z,97885.88
2023-03-31T14:10:41.397Z,97890.88
2023-03-31T14:13:12.291Z,97885.59
2023-03-31T14:15:51.429Z,97892.31
2023-03-31T14:18:38.702Z,97891.22
2023-03-31T14:21:11.677Z,97887.56
2023-03-31T14:23:41.387Z,97888.25
2023-03-31T14:26:27.140Z,97886.47
2023-03-31T14:29:19.701Z,97890.34
2023-03-31T14:32:24.503Z,97885.19
2023-03-31T14:35:03.939Z,97892.38
2023-03-31T14:37:31.075Z,97894.00
2023-03-31T14:39:59.089Z,97886.97
2023-03-31T14:42:33.046Z,97881.06
2023-03-31T14:45:04.870Z,97877.03
2023-03-31T14:47:32.079Z,97879.44
2023-03-31T14:50:06.378Z,97882.72
2023-03-31T14:52:35.883Z,97887.94
2023-03-31T14:55:02.623Z,97895.44
2023-03-31T14:57:33.311Z,97891.53
2023-03-31T15:00:02.470Z,97903.59
2023-03-31T15:02:37.551Z,97900.41
2023-03-31T15:05:07.829Z,97913.94
2023-03-31T15:07:34.959Z,97922.34
2023-03-31T15:10:02.622Z,97921.78
2023-03-31T15:12:29.753Z,97947.81
2023-03-31T15:15:00.406Z,97966.13
2023-03-31T15:17:35.180Z,97992.28
2023-03-31T15:20:04.945Z,98013.75
2023-03-31T15:22:31.762Z,98003.53
2023-03-31T15:24:58.537Z,97999.88
2023-03-31T15:27:38.996Z,98013.69
2023-03-31T15:30:07.816Z,98021.03
2023-03-31T15:32:39.442Z,98032.22
2023-03-31T15:35:21.169Z,98041.47
2023-03-31T15:37:51.063Z,98048.97
2023-03-31T15:40:21.912Z,98045.50
2023-03-31T15:43:01.899Z,98070.72
2023-03-31T15:45:55.057Z,98075.53
2023-03-31T15:48:33.986Z,98056.28
2023-03-31T15:51:22.893Z,98072.97
2023-03-31T15:53:52.675Z,98079.72
2023-03-31T15:56:27.300Z,98062.25
2023-03-31T15:59:05.451Z,98065.50
2023-03-31T16:02:00.001Z,98039.44
2023-03-31T16:04:32.446Z,98038.38
2023-03-31T16:07:07.661Z,98029.50
2023-03-31T16:09:51.733Z,98017.44
2023-03-31T16:12:28.924Z,98017.69
2023-03-31T16:15:14.344Z,97999.69
2023-03-31T16:17:57.444Z,97968.53
2023-03-31T16:20:28.556Z,97945.19
2023-03-31T16:22:58.923Z,97941.16
2023-03-31T16:25:27.857Z,97950.28
2023-03-31T16:27:57.148Z,97931.50
2023-03-31T16:30:41.611Z,97945.19
2023-03-31T16:33:14.401Z,97978.22
2023-03-31T16:35:49.125Z,97982.78
2023-03-31T16:38:16.734Z,97950.03
2023-03-31T16:40:48.093Z,97948.13
2023-03-31T16:43:23.012Z,97950.03
2023-03-31T16:45:51.727Z,97965.34
2023-03-31T16:48:19.896Z,97945.75
2023-03-31T16:50:48.266Z,97952.44
2023-03-31T16:53:16.760Z,97943.06
2023-03-31T16:55:43.575Z,97937.19
2023-03-31T16:58:12.052Z,97940.38
2023-03-31T17:00:40.704Z,97930.44
2023-03-31T17:03:08.926Z,97931.78
2023-03-31T17:05:43.639Z,97926.41
2023-03-31T17:08:11.439Z,97926.41
2023-03-31T17:10:39.338Z,97913.53
2023-03-31T17:13:06.838Z,97913.78
2023-03-31T17:15:36.418Z,97909.78
2023-03-31T17:18:04.710Z,97906.53
2023-03-31T17:20:32.877Z,97900.66
2023-03-31T17:22:59.936Z,97907.63
2023-03-31T17:25:26.890Z,97901.47
2023-03-31T17:27:55.879Z,97908.16
2023-03-31T17:30:23.566Z,97906.28
2023-03-31T17:32:51.561Z,97904.91
2023-03-31T17:35:21.705Z,97921.59
2023-03-31T17:37:50.696Z,97923.72
2023-03-31T17:40:17.507Z,97913.78
2023-03-31T17:42:44.803Z,97915.97
2023-03-31T17:45:12.833Z,97918.34
2023-03-31T17:47:39.942Z,97919.44
2023-03-31T17:50:10.258Z,97917.53
2023-03-31T17:52:37.372Z,97914.59
2023-03-31T17:55:04.703Z,97912.16
2023-03-31T17:57:32.187Z,97932.06
2023-03-31T17:59:59.403Z,97950.31
2023-03-31T18:02:26.129Z,97943.31
2023-03-31T18:04:53.551Z,97951.38
2023-03-31T18:07:23.220Z,97955.13
2023-03-31T18:09:49.968Z,97958.34
2023-03-31T18:12:16.792Z,97951.38
2023-03-31T18:14:43.498Z,97961.84
2023-03-31T18:17:14.835Z,97961.84
2023-03-31T18:19:42.921Z,97952.19
2023-03-31T18:22:09.964Z,97948.97
2023-03-31T18:24:38.482Z,97959.97
2023-03-31T18:27:05.771Z,97968.84
2023-03-31T18:29:32.665Z,97956.50
2023-03-31T18:31:59.532Z,97961.59
2023-03-31T18:34:26.940Z,97966.16
2023-03-31T18:36:54.100Z,97966.41
2023-03-31T18:39:21.536Z,97965.06
2023-03-31T18:41:48.991Z,97970.72
2023-03-31T18:44:18.896Z,97972.59
2023-03-31T18:46:46.234Z,97970.97
2023-03-31T18:49:14.597Z,97978.47
2023-03-31T18:51:41.352Z,97971.78
2023-03-31T18:54:08.222Z,97980.38
2023-03-31T18:56:34.906Z,97977.97
2023-03-31T18:59:04.281Z,97979.59
2023-03-31T19:01:32.765Z,97965.88
2023-03-31T19:03:59.591Z,97965.34
2023-03-31T19:06:26.869Z,97970.16
2023-03-31T19:08:56.151Z,97973.66
2023-03-31T19:11:24.001Z,97974.47
2023-03-31T19:13:50.846Z,97976.34
2023-03-31T19:16:18.713Z,97973.66
2023-03-31T19:18:45.544Z,97978.22
2023-03-31T19:21:12.341Z,97970.47
2023-03-31T19:23:39.258Z,97974.72
2023-03-31T19:26:05.960Z,97965.88
2023-03-31T19:28:32.754Z,97961.84
2023-03-31T19:30:59.820Z,97973.16
2023-03-31T19:33:27.127Z,97956.22
2023-03-31T19:35:54.265Z,97952.19
2023-03-31T19:38:22.037Z,97970.72
2023-03-31T19:40:49.154Z,97966.72
2023-03-31T19:43:20.811Z,97982.00
2023-03-31T19:45:50.608Z,97973.41
2023-03-31T19:48:17.428Z,97975.03
2023-03-31T19:50:54.092Z,97973.69
2023-03-31T19:53:22.314Z,97979.56
2023-03-31T19:55:57.446Z,97986.50
2023-03-31T19:58:24.194Z,97996.69
2023-03-31T20:00:52.838Z,97989.97
2023-03-31T20:03:20.700Z,98001.25
2023-03-31T20:05:48.069Z,98008.47
2023-03-31T20:08:14.991Z,98004.44
2023-03-31T20:10:42.546Z,98002.28
2023-03-31T20:13:09.996Z,98002.25
2023-03-31T20:15:37.866Z,97997.41
2023-03-31T20:18:08.569Z,97994.72
2023-03-31T20:20:35.458Z,98005.69
2023-03-31T20:23:03.618Z,98003.28
2023-03-31T20:25:30.736Z,98005.88
2023-03-31T20:27:57.621Z,98008.28
2023-03-31T20:30:24.464Z,98004.28
2023-03-31T20:32:51.234Z,98007.78
2023-03-31T20:35:18.310Z,97995.13
2023-03-31T20:37:44.980Z,97998.03
2023-03-31T20:40:12.226Z,97991.88
2023-03-31T20:42:38.919Z,97998.25
2023-03-31T20:45:06.747Z,97985.69
2023-03-31T20:47:35.387Z,97985.34
2023-03-31T20:50:02.706Z,98000.59
2023-03-31T20:52:29.450Z,97991.78
2023-03-31T20:54:56.434Z,97993.97
2023-03-31T20:57:24.454Z,97989.88
2023-03-31T20:59:51.740Z,97986.13
2023-03-31T21:02:18.915Z,97979.94
2023-03-31T21:04:46.761Z,97982.13
2023-03-31T21:07:14.412Z,97988.25
2023-03-31T21:09:41.309Z,97978.81
2023-03-31T21:12:08.045Z,97972.66
2023-03-31T21:14:35.026Z,97971.63
2023-03-31T21:17:01.963Z,97964.41
2023-03-31T21:19:28.891Z,97968.69
2023-03-31T21:21:55.570Z,97952.50
2023-03-31T21:24:22.599Z,97952.28
2023-03-31T21:26:49.334Z,97947.53
2023-03-31T21:29:16.144Z,97948.63
2023-03-31T21:31:45.026Z,97945.44
2023-03-31T21:34:11.908Z,97941.16
2023-03-31T21:36:38.722Z,97949.78
2023-03-31T21:39:05.917Z,97942.25
2023-03-31T21:41:32.661Z,97943.63
2023-03-31T21:44:01.763Z,97937.13
2023-03-31T21:46:31.175Z,97931.47
2023-03-31T21:48:58.163Z,97935.81
2023-03-31T21:51:25.815Z,97938.44
2023-03-31T21:53:55.550Z,97933.06
2023-03-31T21:56:24.465Z,97933.06
2023-03-31T21:58:51.225Z,97944.34
2023-03-31T22:01:18.775Z,97942.16
2023-03-31T22:03:46.008Z,97933.59
2023-03-31T22:06:12.851Z,97944.09
2023-03-31T22:08:40.020Z,97949.38
2023-03-31T22:11:08.361Z,97947.06
2023-03-31T22:13:36.029Z,97949.97
2023-03-31T22:16:03.408Z,97948.09
2023-03-31T22:18:30.709Z,97948.41
2023-03-31T22:20:58.100Z,97945.44
2023-03-31T22:23:24.791Z,97935.25
2023-03-31T22:25:51.540Z,97933.13
2023-03-31T22:28:18.418Z,97942.75
2023-03-31T22:30:45.161Z,97938.78
2023-03-31T22:33:11.953Z,97946.00
2023-03-31T22:35:38.774Z,97937.19
2023-03-31T22:38:06.516Z,97946.81
2023-03-31T22:40:36.342Z,97941.44
2023-03-31T22:43:03.233Z,97944.94
2023-03-31T22:45:30.156Z,97939.88
2023-03-31T22:47:57.111Z,97945.75
2023-03-31T22:50:27.482Z,97942.28
2023-03-31T22:52:54.323Z,97940.13
2023-03-31T22:55:21.109Z,97945.50
2023-03-31T22:57:49.866Z,97954.63
2023-03-31T23:00:17.200Z,97957.56
2023-03-31T23:02:43.961Z,97955.69
2023-03-31T23:05:10.736Z,97945.50
2023-03-31T23:07:38.126Z,97952.22
2023-03-31T23:10:05.480Z,97946.56
2023-03-31T23:12:32.150Z,97948.19
2023-03-31T23:14:58.812Z,97954.06
2023-03-31T23:17:25.510Z,97947.91
2023-03-31T23:19:52.741Z,97946.28
2023-03-31T23:22:19.455Z,97958.66
2023-03-31T23:24:50.138Z,97942.00
2023-03-31T23:27:16.845Z,97933.44
2023-03-31T23:29:44.149Z,97938.50
2023-03-31T23:32:11.132Z,97932.34
2023-03-31T23:34:42.037Z,97932.56
2023-03-31T23:37:12.827Z,97942.50
2023-03-31T23:39:39.966Z,97951.63
2023-03-31T23:42:07.422Z,97950.84
2023-03-31T23:44:34.554Z,97955.69
2023-03-31T23:47:02.236Z,97949.25
2023-03-31T23:49:28.872Z,97947.09
2023-03-31T23:51:55.610Z,97960.78
2023-03-31T23:54:22.369Z,97957.03
2023-03-31T23:56:49.573Z,97957.59
2023-03-31T23:59:16.746Z,97957.59
